KAUG

Augusta State Airport

Airport
ICAO code
KAUG
IATA Code
AUG
Summary
ICAO Region
NAM
ICAO Territory
Location

Augusta, Maine

Serving
Augusta
Elevation
352 ft
Coordinates
44° 19' 6" N , 69° 47' 42" W
KCC
Airport CFIT
Altimeter Temperature Error Correction
Airport WX
Cumulonimbus
Metar
KAUG 210553Z AUTO 00000KT 10SM CLR 19/16 A2994 RMK AO2 SLP137 T01940156 10244 20194 58009

Description

Augusta State Airport is a public use airport located 1 nm west of the central business district of Augusta, Maine, USA.

Airport map

Aerial View

SKYbrary Partners:

Safety knowledge contributed by: